createdAt,value
2022-09-28T00:01:17.670Z,10.50
2022-09-28T00:03:45.331Z,10.40
2022-09-28T00:06:15.819Z,10.30
2022-09-28T00:08:42.898Z,10.30
2022-09-28T00:11:13.818Z,10.40
2022-09-28T00:13:41.547Z,10.40
2022-09-28T00:16:14.855Z,10.40
2022-09-28T00:18:41.933Z,10.40
2022-09-28T00:21:12.969Z,10.50
2022-09-28T00:24:00.653Z,10.50
2022-09-28T00:26:28.859Z,10.60
2022-09-28T00:28:58.594Z,10.60
2022-09-28T00:31:30.116Z,10.50
2022-09-28T00:33:57.520Z,10.50
2022-09-28T00:36:26.939Z,10.40
2022-09-28T00:38:55.196Z,10.40
2022-09-28T00:41:22.685Z,10.40
2022-09-28T00:43:49.805Z,10.50
2022-09-28T00:46:23.722Z,10.50
2022-09-28T00:48:57.485Z,10.50
2022-09-28T00:51:25.797Z,10.50
2022-09-28T00:53:54.581Z,10.50
2022-09-28T00:56:26.016Z,10.50
2022-09-28T00:59:00.029Z,10.50
2022-09-28T01:01:30.950Z,10.50
2022-09-28T01:04:02.608Z,10.50
2022-09-28T01:06:34.052Z,10.50
2022-09-28T01:09:05.222Z,10.60
2022-09-28T01:11:35.304Z,10.70
2022-09-28T01:14:03.227Z,10.70
2022-09-28T01:16:39.529Z,10.60
2022-09-28T01:19:33.030Z,10.60
2022-09-28T01:22:17.759Z,10.70
2022-09-28T01:24:51.719Z,10.70
2022-09-28T01:27:23.218Z,10.70
2022-09-28T01:30:02.678Z,10.60
2022-09-28T01:32:46.633Z,10.60
2022-09-28T01:35:19.007Z,10.70
2022-09-28T01:37:52.451Z,10.70
2022-09-28T01:40:22.191Z,10.70
2022-09-28T01:42:55.001Z,10.60
2022-09-28T01:45:27.195Z,10.70
2022-09-28T01:47:58.599Z,10.70
2022-09-28T01:50:29.650Z,10.80
2022-09-28T01:53:03.110Z,10.80
2022-09-28T01:55:37.313Z,10.80
2022-09-28T01:58:11.963Z,10.80
2022-09-28T02:00:43.349Z,10.70
2022-09-28T02:03:16.923Z,10.70
2022-09-28T02:05:50.855Z,10.70
2022-09-28T02:08:26.945Z,10.70
2022-09-28T02:11:03.785Z,10.70
2022-09-28T02:13:35.811Z,10.70
2022-09-28T02:16:10.415Z,10.60
2022-09-28T02:18:40.505Z,10.50
2022-09-28T02:21:13.988Z,10.40
2022-09-28T02:23:51.689Z,10.40
2022-09-28T02:26:23.140Z,10.40
2022-09-28T02:28:51.573Z,10.20
2022-09-28T02:31:25.892Z,10.30
2022-09-28T02:33:55.320Z,10.30
2022-09-28T02:36:24.114Z,10.40
2022-09-28T02:38:52.366Z,10.40
2022-09-28T02:41:37.243Z,10.40
2022-09-28T02:44:23.671Z,10.40
2022-09-28T02:46:58.776Z,10.50
2022-09-28T02:49:34.341Z,10.50
2022-09-28T02:52:40.843Z,10.50
2022-09-28T02:55:19.395Z,10.60
2022-09-28T02:58:03.506Z,10.60
2022-09-28T03:00:39.586Z,10.50
2022-09-28T03:03:14.536Z,10.60
2022-09-28T03:05:53.409Z,10.60
2022-09-28T03:08:25.428Z,10.60
2022-09-28T03:10:58.127Z,10.60
2022-09-28T03:13:29.420Z,10.60
2022-09-28T03:16:09.723Z,10.40
2022-09-28T03:18:36.970Z,10.30
2022-09-28T03:21:07.930Z,10.40
2022-09-28T03:23:34.999Z,10.40
2022-09-28T03:26:01.871Z,10.40
2022-09-28T03:28:29.339Z,10.40
2022-09-28T03:30:56.519Z,10.40
2022-09-28T03:33:24.790Z,10.50
2022-09-28T03:35:51.677Z,10.50
2022-09-28T03:38:19.563Z,10.50
2022-09-28T03:40:53.522Z,10.60
2022-09-28T03:43:20.791Z,10.60
2022-09-28T03:45:55.604Z,10.70
2022-09-28T03:48:31.203Z,10.70
2022-09-28T03:51:01.156Z,10.60
2022-09-28T03:53:32.415Z,10.60
2022-09-28T03:56:04.330Z,10.60
2022-09-28T03:58:31.677Z,10.60
2022-09-28T04:01:03.316Z,10.50
2022-09-28T04:03:31.918Z,10.60
2022-09-28T04:05:58.921Z,10.60
2022-09-28T04:08:26.062Z,10.50
2022-09-28T04:10:57.163Z,10.50
2022-09-28T04:13:24.871Z,10.50
2022-09-28T04:15:56.780Z,10.40
2022-09-28T04:18:24.842Z,10.40
2022-09-28T04:21:03.502Z,10.40
2022-09-28T04:23:34.540Z,10.40
2022-09-28T04:26:01.476Z,10.50
2022-09-28T04:28:49.983Z,10.40
2022-09-28T04:31:19.801Z,10.40
2022-09-28T04:33:46.927Z,10.30
2022-09-28T04:36:15.274Z,10.30
2022-09-28T04:38:53.713Z,10.30
2022-09-28T04:41:24.204Z,10.40
2022-09-28T04:43:51.362Z,10.30
2022-09-28T04:46:19.056Z,10.30
2022-09-28T04:48:46.380Z,10.30
2022-09-28T04:51:14.679Z,10.30
2022-09-28T04:53:44.719Z,10.20
2022-09-28T04:56:19.135Z,10.30
2022-09-28T04:58:51.750Z,10.30
2022-09-28T05:01:27.416Z,10.20
2022-09-28T05:03:54.493Z,10.20
2022-09-28T05:06:22.902Z,10.10
2022-09-28T05:08:49.801Z,10.10
2022-09-28T05:11:16.698Z,10.00
2022-09-28T05:13:45.508Z,10.00
2022-09-28T05:16:15.827Z,9.90
2022-09-28T05:18:45.180Z,9.90
2022-09-28T05:21:13.803Z,9.90
2022-09-28T05:23:46.630Z,9.90
2022-09-28T05:26:13.878Z,10.00
2022-09-28T05:28:40.979Z,9.90
2022-09-28T05:31:08.301Z,9.90
2022-09-28T05:33:35.458Z,9.90
2022-09-28T05:36:03.575Z,9.70
2022-09-28T05:38:31.165Z,9.70
2022-09-28T05:41:06.407Z,9.70
2022-09-28T05:43:34.023Z,9.70
2022-09-28T05:46:01.021Z,9.70
2022-09-28T05:48:28.520Z,9.70
2022-09-28T05:50:58.743Z,9.70
2022-09-28T05:53:26.118Z,9.50
2022-09-28T05:55:53.010Z,9.50
2022-09-28T05:58:30.480Z,9.50
2022-09-28T06:00:58.035Z,9.40
2022-09-28T06:03:25.542Z,9.30
2022-09-28T06:05:52.924Z,9.30
2022-09-28T06:08:20.061Z,9.40
2022-09-28T06:10:46.961Z,9.40
2022-09-28T06:13:14.238Z,9.40
2022-09-28T06:15:43.667Z,9.40
2022-09-28T06:18:15.697Z,9.50
2022-09-28T06:20:43.078Z,9.40
2022-09-28T06:23:10.615Z,9.50
2022-09-28T06:25:46.708Z,9.50
2022-09-28T06:28:20.631Z,9.60
2022-09-28T06:30:54.918Z,9.50
2022-09-28T06:33:22.063Z,9.50
2022-09-28T06:35:55.006Z,9.50
2022-09-28T06:38:25.124Z,9.50
2022-09-28T06:40:58.820Z,9.60
2022-09-28T06:43:34.581Z,9.70
2022-09-28T06:46:06.668Z,9.70
2022-09-28T06:48:44.363Z,9.70
2022-09-28T06:51:14.662Z,9.80
2022-09-28T06:53:46.296Z,9.90
2022-09-28T06:56:13.211Z,10.00
2022-09-28T06:58:46.249Z,10.00
2022-09-28T07:01:20.816Z,10.00
2022-09-28T07:03:49.011Z,10.00
2022-09-28T07:06:23.945Z,10.10
2022-09-28T07:09:01.943Z,10.10
2022-09-28T07:11:45.151Z,10.20
2022-09-28T07:14:22.888Z,10.20
2022-09-28T07:17:14.143Z,10.30
2022-09-28T07:19:41.648Z,10.40
2022-09-28T07:22:18.803Z,10.40
2022-09-28T07:24:47.264Z,10.40
2022-09-28T07:27:16.633Z,10.40
2022-09-28T07:29:43.557Z,10.60
2022-09-28T07:32:11.868Z,10.60
2022-09-28T07:34:43.743Z,10.60
2022-09-28T07:37:13.369Z,10.50
2022-09-28T07:39:59.531Z,10.60
2022-09-28T07:42:30.370Z,10.70
2022-09-28T07:44:58.376Z,10.80
2022-09-28T07:47:32.259Z,10.80
2022-09-28T07:50:14.074Z,10.90
2022-09-28T07:52:41.219Z,11.00
2022-09-28T07:55:09.184Z,11.10
2022-09-28T07:57:36.429Z,11.20
2022-09-28T08:00:07.410Z,11.20
2022-09-28T08:02:37.123Z,11.30
2022-09-28T08:05:09.252Z,11.40
2022-09-28T08:07:38.181Z,11.60
2022-09-28T08:10:07.502Z,11.60
2022-09-28T08:12:43.593Z,11.60
2022-09-28T08:15:11.566Z,11.70
2022-09-28T08:17:39.869Z,11.70
2022-09-28T08:20:28.726Z,11.80
2022-09-28T08:22:59.153Z,11.80
2022-09-28T08:25:31.471Z,11.80
2022-09-28T08:27:58.469Z,11.90
2022-09-28T08:30:25.619Z,11.90
2022-09-28T08:32:54.076Z,12.00
2022-09-28T08:35:21.018Z,12.00
2022-09-28T08:37:55.605Z,12.00
2022-09-28T08:40:25.577Z,12.10
2022-09-28T08:43:06.543Z,12.10
2022-09-28T08:45:35.754Z,12.00
2022-09-28T08:48:37.847Z,12.00
2022-09-28T08:51:10.905Z,12.00
2022-09-28T08:53:43.321Z,12.00
2022-09-28T08:56:27.068Z,12.10
2022-09-28T08:59:01.285Z,12.20
2022-09-28T09:01:40.439Z,12.20
2022-09-28T09:04:08.838Z,12.20
2022-09-28T09:07:02.646Z,12.30
2022-09-28T09:09:47.945Z,12.40
2022-09-28T09:12:28.548Z,12.40
2022-09-28T09:15:40.067Z,12.50
2022-09-28T09:18:22.312Z,12.50
2022-09-28T09:20:56.513Z,12.60
2022-09-28T09:23:36.047Z,12.60
2022-09-28T09:26:15.711Z,12.60
2022-09-28T09:29:13.670Z,12.40
2022-09-28T09:32:02.955Z,12.40
2022-09-28T09:34:55.372Z,12.30
2022-09-28T09:37:40.459Z,12.30
2022-09-28T09:40:29.000Z,12.30
2022-09-28T09:43:31.558Z,12.30
2022-09-28T09:46:16.843Z,12.30
2022-09-28T09:48:50.814Z,12.30
2022-09-28T09:51:25.946Z,12.30
2022-09-28T09:54:00.011Z,12.30
2022-09-28T09:56:36.881Z,12.30
2022-09-28T09:59:09.879Z,12.40
2022-09-28T10:01:40.029Z,12.40
2022-09-28T10:04:17.286Z,12.40
2022-09-28T10:06:44.647Z,12.50
2022-09-28T10:09:25.001Z,12.50
2022-09-28T10:11:52.566Z,12.60
2022-09-28T10:14:22.683Z,12.60
2022-09-28T10:16:56.001Z,12.70
2022-09-28T10:19:34.405Z,12.70
2022-09-28T10:22:06.148Z,12.70
2022-09-28T10:24:45.183Z,12.60
2022-09-28T10:27:16.036Z,12.60
2022-09-28T10:29:50.914Z,12.50
2022-09-28T10:32:21.526Z,12.50
2022-09-28T10:34:51.263Z,12.50
2022-09-28T10:37:19.109Z,12.60
2022-09-28T10:39:53.191Z,12.70
2022-09-28T10:42:23.854Z,12.70
2022-09-28T10:44:55.531Z,12.80
2022-09-28T10:47:25.733Z,12.90
2022-09-28T10:49:54.901Z,13.00
2022-09-28T10:52:39.854Z,12.90
2022-09-28T10:55:36.928Z,13.00
2022-09-28T10:58:26.387Z,13.00
2022-09-28T11:01:02.248Z,13.10
2022-09-28T11:03:30.584Z,13.10
2022-09-28T11:06:10.492Z,13.10
2022-09-28T11:08:41.967Z,13.00
2022-09-28T11:11:15.959Z,13.00
2022-09-28T11:13:48.828Z,13.00
2022-09-28T11:16:34.915Z,13.00
2022-09-28T11:19:06.830Z,12.90
2022-09-28T11:21:42.816Z,12.90
2022-09-28T11:24:21.657Z,12.90
2022-09-28T11:27:00.073Z,13.00
2022-09-28T11:29:36.336Z,13.00
2022-09-28T11:32:05.939Z,13.10
2022-09-28T11:34:54.912Z,13.20
2022-09-28T11:38:04.438Z,13.20
2022-09-28T11:40:49.318Z,13.10
2022-09-28T11:43:46.468Z,12.90
2022-09-28T11:46:22.246Z,12.80
2022-09-28T11:49:05.243Z,12.90
2022-09-28T11:51:42.269Z,12.80
2022-09-28T11:54:26.078Z,12.90
2022-09-28T11:57:02.718Z,12.90
2022-09-28T11:59:34.587Z,12.90
2022-09-28T12:02:14.870Z,12.90
2022-09-28T12:04:47.768Z,12.90
2022-09-28T12:07:31.122Z,12.90
2022-09-28T12:10:09.903Z,12.80
2022-09-28T12:12:43.720Z,12.90
2022-09-28T12:15:18.986Z,12.90
2022-09-28T12:17:51.060Z,13.00
2022-09-28T12:20:32.809Z,13.00
2022-09-28T12:23:07.265Z,13.00
2022-09-28T12:25:41.764Z,13.10
2022-09-28T12:28:18.645Z,13.10
2022-09-28T12:30:48.804Z,13.10
2022-09-28T12:33:15.984Z,13.10
2022-09-28T12:36:09.505Z,13.10
2022-09-28T12:39:18.070Z,13.00
2022-09-28T12:42:02.305Z,13.10
2022-09-28T12:44:59.447Z,13.20
2022-09-28T12:48:03.826Z,13.30
2022-09-28T12:50:44.004Z,13.40
2022-09-28T12:53:51.364Z,13.40
2022-09-28T12:56:31.581Z,13.40
2022-09-28T12:59:14.826Z,13.50
2022-09-28T13:02:02.388Z,13.50
2022-09-28T13:05:00.456Z,13.50
2022-09-28T13:07:34.955Z,13.50
2022-09-28T13:10:14.345Z,13.50
2022-09-28T13:12:59.673Z,13.40
2022-09-28T13:15:53.120Z,13.30
2022-09-28T13:18:29.178Z,13.30
2022-09-28T13:21:22.979Z,13.30
2022-09-28T13:24:20.999Z,13.40
2022-09-28T13:27:15.612Z,13.50
2022-09-28T13:29:44.022Z,13.60
2022-09-28T13:32:12.705Z,13.50
2022-09-28T13:34:40.170Z,13.60
2022-09-28T13:37:24.310Z,13.60
2022-09-28T13:39:53.319Z,13.60
2022-09-28T13:43:00.550Z,13.50
2022-09-28T13:45:50.932Z,13.60
2022-09-28T13:48:20.632Z,13.60
2022-09-28T13:51:11.974Z,13.60
2022-09-28T13:54:07.821Z,13.70
2022-09-28T13:56:42.841Z,13.70
2022-09-28T13:59:20.589Z,13.60
2022-09-28T14:01:55.748Z,13.60
2022-09-28T14:04:25.760Z,13.60
2022-09-28T14:06:59.347Z,13.60
2022-09-28T14:09:42.854Z,13.60
2022-09-28T14:12:45.580Z,13.60
2022-09-28T14:15:44.051Z,13.60
2022-09-28T14:18:23.732Z,13.60
2022-09-28T14:21:13.647Z,13.50
2022-09-28T14:24:01.961Z,13.60
2022-09-28T14:27:14.013Z,13.50
2022-09-28T14:29:44.365Z,13.60
2022-09-28T14:32:36.176Z,13.60
2022-09-28T14:35:07.157Z,13.70
2022-09-28T14:37:56.388Z,13.70
2022-09-28T14:40:49.813Z,13.70
2022-09-28T14:43:28.982Z,13.70
2022-09-28T14:46:30.452Z,13.80
2022-09-28T14:49:01.667Z,13.80
2022-09-28T14:52:02.120Z,13.80
2022-09-28T14:54:42.480Z,13.90
2022-09-28T14:57:19.628Z,14.00
2022-09-28T14:59:48.121Z,14.10
2022-09-28T15:02:31.473Z,14.20
2022-09-28T15:05:09.848Z,14.10
2022-09-28T15:07:50.727Z,14.20
2022-09-28T15:10:31.456Z,14.10
2022-09-28T15:13:01.350Z,13.90
2022-09-28T15:15:36.467Z,13.90
2022-09-28T15:21:18.574Z,13.90
2022-09-28T15:23:46.787Z,13.80
2022-09-28T15:26:27.463Z,13.80
2022-09-28T15:28:55.211Z,13.80
2022-09-28T15:31:35.468Z,13.90
2022-09-28T15:34:21.256Z,13.90
2022-09-28T15:36:48.449Z,13.90
2022-09-28T15:39:21.317Z,14.00
2022-09-28T15:41:50.273Z,13.90
2022-09-28T15:44:32.343Z,14.00
2022-09-28T15:47:11.396Z,13.80
2022-09-28T15:49:44.871Z,13.90
2022-09-28T15:52:30.538Z,13.90
2022-09-28T15:54:57.761Z,13.80
2022-09-28T15:57:37.494Z,13.70
2022-09-28T16:00:22.924Z,13.70
2022-09-28T16:03:05.544Z,13.60
2022-09-28T16:05:41.389Z,13.60
2022-09-28T16:08:21.294Z,13.60
2022-09-28T16:10:59.768Z,13.70
2022-09-28T16:13:29.591Z,13.70
2022-09-28T16:15:59.540Z,13.70
2022-09-28T16:18:30.584Z,13.70
2022-09-28T16:21:26.536Z,13.70
2022-09-28T16:23:55.847Z,13.70
2022-09-28T16:26:32.246Z,13.60
2022-09-28T16:29:09.451Z,13.50
2022-09-28T16:31:43.970Z,13.50
2022-09-28T16:34:20.299Z,13.50
2022-09-28T16:36:49.337Z,13.50
2022-09-28T16:39:18.480Z,13.50
2022-09-28T16:41:49.901Z,13.40
2022-09-28T16:44:24.282Z,13.40
2022-09-28T16:47:00.137Z,13.40
2022-09-28T16:49:31.546Z,13.40
2022-09-28T16:51:59.473Z,13.40
2022-09-28T16:54:45.222Z,13.30
2022-09-28T16:57:15.893Z,13.30
2022-09-28T16:59:45.978Z,13.40
2022-09-28T17:02:35.317Z,13.40
2022-09-28T17:05:07.512Z,13.40
2022-09-28T17:07:37.572Z,13.30
2022-09-28T17:10:19.590Z,13.30
2022-09-28T17:12:47.589Z,13.30
2022-09-28T17:15:19.318Z,13.40
2022-09-28T17:17:46.560Z,13.40
2022-09-28T17:20:22.718Z,13.30
2022-09-28T17:22:53.728Z,13.30
2022-09-28T17:25:23.568Z,13.30
2022-09-28T17:27:51.988Z,13.20
2022-09-28T17:30:25.888Z,13.20
2022-09-28T17:32:54.773Z,13.20
2022-09-28T17:35:29.136Z,13.10
2022-09-28T17:37:56.531Z,12.90
2022-09-28T17:40:28.419Z,12.90
2022-09-28T17:42:56.455Z,12.80
2022-09-28T17:45:28.620Z,12.90
2022-09-28T17:47:56.217Z,13.00
2022-09-28T17:50:27.395Z,13.00
2022-09-28T17:52:58.087Z,13.00
2022-09-28T17:55:30.355Z,13.00
2022-09-28T17:58:01.059Z,13.00
2022-09-28T18:00:28.644Z,13.00
2022-09-28T18:02:59.007Z,13.00
2022-09-28T18:05:26.972Z,13.00
2022-09-28T18:07:58.206Z,13.00
2022-09-28T18:10:32.259Z,13.10
2022-09-28T18:12:59.334Z,13.00
2022-09-28T18:15:26.412Z,12.90
2022-09-28T18:17:53.395Z,12.80
2022-09-28T18:20:21.319Z,12.80
2022-09-28T18:22:48.744Z,12.80
2022-09-28T18:25:20.563Z,12.80
2022-09-28T18:27:47.531Z,12.80
2022-09-28T18:30:17.732Z,12.80
2022-09-28T18:32:44.639Z,12.80
2022-09-28T18:35:14.593Z,12.80
2022-09-28T18:37:42.479Z,12.70
2022-09-28T18:40:13.319Z,12.80
2022-09-28T18:42:42.918Z,12.80
2022-09-28T18:45:11.261Z,12.60
2022-09-28T18:47:38.605Z,12.50
2022-09-28T18:50:06.707Z,12.50
2022-09-28T18:52:36.199Z,12.60
2022-09-28T18:55:03.488Z,12.60
2022-09-28T18:57:33.466Z,12.60
2022-09-28T19:00:11.242Z,12.60
2022-09-28T19:02:39.224Z,12.50
2022-09-28T19:05:15.665Z,12.40
2022-09-28T19:07:45.792Z,12.30
2022-09-28T19:10:12.868Z,12.20
2022-09-28T19:12:39.846Z,12.10
2022-09-28T19:15:09.351Z,12.20
2022-09-28T19:17:46.753Z,12.30
2022-09-28T19:20:13.879Z,12.40
2022-09-28T19:22:48.412Z,12.40
2022-09-28T19:25:15.785Z,12.40
2022-09-28T19:27:47.763Z,12.30
2022-09-28T19:30:16.164Z,12.30
2022-09-28T19:32:43.149Z,12.30
2022-09-28T19:35:13.453Z,12.30
2022-09-28T19:37:40.392Z,12.20
2022-09-28T19:40:13.196Z,12.20
2022-09-28T19:42:42.426Z,12.10
2022-09-28T19:45:10.826Z,12.10
2022-09-28T19:47:45.326Z,12.10
2022-09-28T19:50:12.307Z,12.10
2022-09-28T19:52:39.253Z,12.10
2022-09-28T19:55:07.611Z,12.00
2022-09-28T19:57:34.948Z,12.00
2022-09-28T20:00:03.698Z,12.00
2022-09-28T20:02:31.054Z,12.00
2022-09-28T20:04:59.468Z,11.90
2022-09-28T20:07:32.734Z,11.90
2022-09-28T20:09:59.723Z,11.80
2022-09-28T20:12:32.563Z,11.80
2022-09-28T20:15:07.805Z,11.80
2022-09-28T20:17:36.290Z,11.70
2022-09-28T20:20:08.659Z,11.70
2022-09-28T20:22:38.678Z,11.60
2022-09-28T20:25:07.110Z,11.50
2022-09-28T20:27:39.069Z,11.60
2022-09-28T20:30:08.614Z,11.50
2022-09-28T20:32:35.652Z,11.50
2022-09-28T20:35:04.939Z,11.50
2022-09-28T20:37:32.910Z,11.50
2022-09-28T20:40:01.627Z,11.40
2022-09-28T20:42:31.890Z,11.40
2022-09-28T20:44:58.899Z,11.40
2022-09-28T20:47:25.984Z,11.50
2022-09-28T20:49:52.946Z,11.50
2022-09-28T20:52:21.263Z,11.50
2022-09-28T20:54:48.341Z,11.60
2022-09-28T20:57:17.960Z,11.50
2022-09-28T20:59:45.030Z,11.60
2022-09-28T21:02:14.616Z,11.60
2022-09-28T21:04:41.962Z,11.60
2022-09-28T21:07:09.260Z,11.60
2022-09-28T21:09:38.050Z,11.50
2022-09-28T21:12:05.446Z,11.50
2022-09-28T21:14:32.344Z,11.40
2022-09-28T21:16:59.233Z,11.30
2022-09-28T21:19:29.431Z,11.20
2022-09-28T21:21:56.328Z,10.90
2022-09-28T21:24:26.756Z,10.80
2022-09-28T21:26:58.309Z,10.60
2022-09-28T21:29:26.280Z,10.70
2022-09-28T21:31:53.379Z,10.80
2022-09-28T21:34:21.310Z,10.80
2022-09-28T21:36:51.328Z,10.80
2022-09-28T21:39:20.113Z,10.70
2022-09-28T21:41:47.297Z,10.60
2022-09-28T21:44:15.883Z,10.60
2022-09-28T21:46:43.052Z,10.60
2022-09-28T21:49:10.857Z,10.60
2022-09-28T21:51:38.047Z,10.50
2022-09-28T21:54:05.554Z,10.50
2022-09-28T21:56:35.944Z,10.50
2022-09-28T21:59:05.704Z,10.40
2022-09-28T22:01:34.128Z,10.40
2022-09-28T22:04:02.331Z,10.40
2022-09-28T22:06:29.377Z,10.30
2022-09-28T22:08:58.068Z,10.40
2022-09-28T22:11:28.139Z,10.60
2022-09-28T22:13:57.103Z,10.70
2022-09-28T22:16:26.661Z,10.60
2022-09-28T22:18:55.229Z,10.30
2022-09-28T22:21:24.905Z,9.90
2022-09-28T22:23:52.459Z,10.00
2022-09-28T22:26:30.086Z,10.00
2022-09-28T22:29:01.404Z,10.20
2022-09-28T22:31:31.413Z,10.20
2022-09-28T22:34:00.378Z,10.20
2022-09-28T22:36:27.992Z,10.00
2022-09-28T22:38:58.150Z,9.90
2022-09-28T22:41:25.678Z,9.80
2022-09-28T22:43:54.600Z,9.90
2022-09-28T22:46:24.094Z,9.90
2022-09-28T22:48:56.594Z,9.90
2022-09-28T22:51:27.691Z,9.70
2022-09-28T22:53:54.893Z,9.70
2022-09-28T22:56:21.831Z,9.60
2022-09-28T22:58:48.900Z,9.70
2022-09-28T23:01:18.442Z,9.80
2022-09-28T23:03:46.026Z,9.90
2022-09-28T23:06:16.778Z,9.90
2022-09-28T23:08:45.885Z,9.80
2022-09-28T23:11:16.234Z,9.80
2022-09-28T23:13:47.939Z,9.70
2022-09-28T23:16:15.067Z,9.80
2022-09-28T23:18:42.516Z,9.70
2022-09-28T23:21:13.245Z,9.70
2022-09-28T23:23:40.275Z,9.60
2022-09-28T23:26:17.110Z,9.60
2022-09-28T23:28:45.090Z,9.60
2022-09-28T23:31:14.818Z,9.50
2022-09-28T23:33:42.212Z,9.50
2022-09-28T23:36:09.874Z,9.40
2022-09-28T23:38:37.847Z,9.20
2022-09-28T23:41:05.511Z,9.30
2022-09-28T23:43:34.450Z,9.30
2022-09-28T23:46:01.632Z,9.30
2022-09-28T23:48:28.699Z,9.20
2022-09-28T23:50:55.813Z,9.10
2022-09-28T23:53:26.019Z,9.10
2022-09-28T23:55:53.185Z,9.20
2022-09-28T23:58:24.029Z,9.30
